createdAt,value
2023-01-01T00:09:43.000Z,1.8
2023-01-01T00:24:22.000Z,3
2023-01-01T00:39:01.000Z,2.8
2023-01-01T00:53:40.000Z,2.8
2023-01-01T01:08:18.000Z,3.6
2023-01-01T01:22:57.000Z,3.3
2023-01-01T01:37:36.000Z,2.6
2023-01-01T01:52:15.000Z,2.5
2023-01-01T02:06:53.000Z,2.8
2023-01-01T02:21:30.000Z,2.7
2023-01-01T02:36:10.000Z,2.7
2023-01-01T02:50:49.000Z,2.2
2023-01-01T03:05:26.000Z,2.1
2023-01-01T03:34:38.000Z,1.9
2023-01-01T03:49:16.000Z,2.2
2023-01-01T04:18:31.000Z,1.8
2023-01-01T04:47:43.000Z,1.9
2023-01-01T05:16:50.000Z,1.7
2023-01-01T05:46:04.000Z,1.5
2023-01-01T06:15:12.000Z,1.7
2023-01-01T06:44:15.000Z,1.5
2023-01-01T07:13:25.000Z,1.4
2023-01-01T07:42:33.000Z,1.5
2023-01-01T08:11:33.000Z,1.2
2023-01-01T08:40:48.000Z,1.6
2023-01-01T09:10:03.000Z,1.4
2023-01-01T09:39:19.000Z,1.7
2023-01-01T10:08:34.000Z,1.5
2023-01-01T10:37:49.000Z,1.7
2023-01-01T11:07:00.000Z,1.5
2023-01-01T11:36:17.000Z,1.6
2023-01-01T12:05:22.000Z,1.7
2023-01-01T12:34:38.000Z,2.3
2023-01-01T13:03:36.000Z,1.7
2023-01-01T13:32:52.000Z,1.5
2023-01-01T14:02:03.000Z,1.8
2023-01-01T14:31:19.000Z,1.6
2023-01-01T15:00:34.000Z,1.8
2023-01-01T15:29:49.000Z,1.8
2023-01-01T16:27:49.000Z,2.3
2023-01-01T17:25:44.000Z,2.5
